createdAt,value
2018-09-15T00:01:27.430Z,100844.78
2018-09-15T00:02:05.570Z,100844.52
2018-09-15T00:02:43.649Z,100848.27
2018-09-15T00:03:21.860Z,100849.08
2018-09-15T00:04:00.083Z,100851.50
2018-09-15T00:04:38.367Z,100852.58
2018-09-15T00:05:16.722Z,100851.50
2018-09-15T00:05:55.421Z,100848.54
2018-09-15T00:06:33.697Z,100853.64
2018-09-15T00:07:12.203Z,100850.69
2018-09-15T00:07:50.768Z,100851.22
2018-09-15T00:08:29.137Z,100854.48
2018-09-15T00:09:07.878Z,100855.83
2018-09-15T00:09:46.279Z,100850.98
2018-09-15T00:10:24.699Z,100852.05
2018-09-15T00:11:02.978Z,100855.02
2018-09-15T00:11:41.272Z,100857.42
2018-09-15T00:12:19.519Z,100857.70
2018-09-15T00:12:57.725Z,100855.81
2018-09-15T00:13:35.875Z,100850.16
2018-09-15T00:14:14.350Z,100854.47
2018-09-15T00:14:52.560Z,100852.84
2018-09-15T00:15:30.725Z,100856.34
2018-09-15T00:16:08.930Z,100852.31
2018-09-15T00:16:46.999Z,100853.38
2018-09-15T00:17:25.333Z,100856.88
2018-09-15T00:18:05.736Z,100849.62
2018-09-15T00:18:45.078Z,100854.72
2018-09-15T00:19:23.383Z,100852.30
2018-09-15T00:20:01.619Z,100856.60
2018-09-15T00:20:40.643Z,100855.26
2018-09-15T00:21:18.802Z,100857.95
2018-09-15T00:21:56.836Z,100853.64
2018-09-15T00:22:35.970Z,100852.84
2018-09-15T00:23:15.601Z,100859.83
2018-09-15T00:23:53.733Z,100858.75
2018-09-15T00:24:31.774Z,100863.08
2018-09-15T00:25:10.093Z,100867.64
2018-09-15T00:25:48.270Z,100863.34
2018-09-15T00:26:26.469Z,100862.80
2018-09-15T00:27:04.766Z,100872.22
2018-09-15T00:27:42.729Z,100867.37
2018-09-15T00:28:20.864Z,100866.83
2018-09-15T00:28:59.021Z,100865.79
2018-09-15T00:29:37.179Z,100870.09
2018-09-15T00:30:15.416Z,100871.16
2018-09-15T00:30:53.645Z,100869.01
2018-09-15T00:31:32.167Z,100873.05
2018-09-15T00:32:10.442Z,100876.54
2018-09-15T00:32:48.721Z,100877.34
2018-09-15T00:33:26.953Z,100879.23
2018-09-15T00:34:05.160Z,100881.37
2018-09-15T00:34:43.439Z,100880.30
2018-09-15T00:35:21.569Z,100885.68
2018-09-15T00:35:59.819Z,100882.45
2018-09-15T00:36:38.119Z,100885.68
2018-09-15T00:37:16.387Z,100883.80
2018-09-15T00:37:54.774Z,100891.06
2018-09-15T00:38:32.978Z,100895.90
2018-09-15T00:39:14.370Z,100894.83
2018-09-15T00:39:52.613Z,100900.20
2018-09-15T00:40:31.095Z,100902.89
2018-09-15T00:41:09.214Z,100904.24
2018-09-15T00:41:47.241Z,100910.69
2018-09-15T00:42:25.181Z,100905.31
2018-09-15T00:43:03.283Z,100907.73
2018-09-15T00:43:41.190Z,100907.73
2018-09-15T00:44:19.054Z,100911.50
2018-09-15T00:44:57.051Z,100911.50
2018-09-15T00:45:35.039Z,100916.34
2018-09-15T00:46:13.082Z,100916.59
2018-09-15T00:46:50.987Z,100914.73
2018-09-15T00:47:29.007Z,100916.34
2018-09-15T00:48:07.037Z,100916.34
2018-09-15T00:48:45.815Z,100924.95
2018-09-15T00:49:23.743Z,100917.14
2018-09-15T00:50:01.655Z,100921.72
2018-09-15T00:50:39.587Z,100918.49
2018-09-15T00:51:17.418Z,100925.22
2018-09-15T00:51:55.420Z,100923.06
2018-09-15T00:52:33.392Z,100929.25
2018-09-15T00:53:11.323Z,100927.38
2018-09-15T00:53:49.164Z,100925.76
2018-09-15T00:54:27.067Z,100934.91
2018-09-15T00:55:05.060Z,100931.94
2018-09-15T00:55:43.058Z,100932.75
2018-09-15T00:56:20.924Z,100934.36
2018-09-15T00:56:58.719Z,100930.33
2018-09-15T00:57:36.599Z,100933.55
2018-09-15T00:58:14.363Z,100937.05
2018-09-15T00:58:52.401Z,100939.20
2018-09-15T00:59:30.240Z,100939.46
2018-09-15T01:00:09.090Z,100933.81
2018-09-15T01:00:47.066Z,100939.48
2018-09-15T01:01:26.126Z,100938.94
2018-09-15T01:02:04.040Z,100942.16
2018-09-15T01:02:41.984Z,100942.42
2018-09-15T01:03:19.950Z,100944.04
2018-09-15T01:03:57.889Z,100943.50
2018-09-15T01:04:35.894Z,100949.14
2018-09-15T01:05:13.818Z,100948.60
2018-09-15T01:05:51.830Z,100952.63
2018-09-15T01:06:29.823Z,100958.00
2018-09-15T01:07:07.734Z,100956.42
2018-09-15T01:07:45.609Z,100959.11
2018-09-15T01:08:23.597Z,100952.37
2018-09-15T01:09:02.659Z,100952.91
2018-09-15T01:09:40.585Z,100957.48
2018-09-15T01:10:18.632Z,100954.78
2018-09-15T01:10:56.585Z,100957.20
2018-09-15T01:11:34.591Z,100951.81
2018-09-15T01:12:12.352Z,100956.12
2018-09-15T01:12:50.306Z,100956.38
2018-09-15T01:13:28.365Z,100958.27
2018-09-15T01:14:06.300Z,100960.69
2018-09-15T01:14:44.413Z,100958.25
2018-09-15T01:15:22.269Z,100959.86
2018-09-15T01:16:00.819Z,100963.90
2018-09-15T01:16:38.885Z,100962.61
2018-09-15T01:17:16.880Z,100965.55
2018-09-15T01:17:54.742Z,100963.92
2018-09-15T01:18:32.698Z,100966.34
2018-09-15T01:19:10.707Z,100965.80
2018-09-15T01:19:48.733Z,100963.36
2018-09-15T01:20:26.693Z,100973.86
2018-09-15T01:21:04.648Z,100968.45
2018-09-15T01:21:42.460Z,100970.89
2018-09-15T01:22:20.316Z,100967.65
2018-09-15T01:22:58.264Z,100969.80
2018-09-15T01:23:36.375Z,100979.22
2018-09-15T01:24:14.556Z,100981.91
2018-09-15T01:24:53.347Z,100977.59
2018-09-15T01:25:31.273Z,100983.25
2018-09-15T01:26:09.201Z,100978.93
2018-09-15T01:26:47.239Z,100985.38
2018-09-15T01:27:25.174Z,100980.26
2018-09-15T01:28:03.124Z,100984.54
2018-09-15T01:28:41.007Z,100978.05
2018-09-15T01:29:18.955Z,100986.37
2018-09-15T01:29:56.831Z,100984.75
2018-09-15T01:30:34.907Z,100981.27
2018-09-15T01:31:13.019Z,100990.17
2018-09-15T01:31:50.936Z,100991.25
2018-09-15T01:32:30.009Z,100986.66
2018-09-15T01:33:08.002Z,100994.75
2018-09-15T01:33:46.750Z,100988.53
2018-09-15T01:34:24.584Z,100990.41
2018-09-15T01:35:02.598Z,100991.47
2018-09-15T01:35:40.406Z,100987.16
2018-09-15T01:36:18.320Z,100986.88
2018-09-15T01:36:56.155Z,100996.30
2018-09-15T01:37:34.027Z,100991.70
2018-09-15T01:38:11.953Z,100994.41
2018-09-15T01:38:49.951Z,100994.67
2018-09-15T01:39:27.873Z,100992.78
2018-09-15T01:40:07.795Z,100990.34
2018-09-15T01:40:45.627Z,100996.00
2018-09-15T01:41:23.448Z,100995.72
2018-09-15T01:42:01.418Z,100993.56
2018-09-15T01:42:39.444Z,100984.95
2018-09-15T01:43:17.312Z,100999.48
2018-09-15T01:43:55.134Z,100994.66
2018-09-15T01:44:33.074Z,100993.01
2018-09-15T01:45:11.003Z,100998.12
2018-09-15T01:45:48.899Z,100998.10
2018-09-15T01:46:26.868Z,100998.63
2018-09-15T01:47:04.813Z,100995.38
2018-09-15T01:47:42.709Z,100989.70
2018-09-15T01:48:20.629Z,100993.74
2018-09-15T01:48:58.591Z,100998.84
2018-09-15T01:49:37.343Z,100994.52
2018-09-15T01:50:16.112Z,101000.98
2018-09-15T01:50:53.964Z,100997.18
2018-09-15T01:51:32.021Z,101000.13
2018-09-15T01:52:10.059Z,101001.72
2018-09-15T01:52:48.114Z,100996.84
2018-09-15T01:53:26.253Z,100998.20
2018-09-15T01:54:04.755Z,100998.16
2018-09-15T01:54:42.721Z,101000.85
2018-09-15T01:55:20.588Z,101008.16
2018-09-15T01:55:58.560Z,101000.32
2018-09-15T01:56:36.624Z,101006.50
2018-09-15T01:57:14.814Z,101002.45
2018-09-15T01:57:52.726Z,101007.28
2018-09-15T01:58:30.754Z,101012.38
2018-09-15T01:59:09.096Z,101003.50
2018-09-15T01:59:46.995Z,101014.77
2018-09-15T02:00:25.843Z,101014.46
2018-09-15T02:01:03.986Z,101013.36
2018-09-15T02:01:41.915Z,101012.43
2018-09-15T02:02:19.821Z,101019.96
2018-09-15T02:02:57.757Z,101011.14
2018-09-15T02:03:35.764Z,101018.38
2018-09-15T02:04:13.898Z,101016.52
2018-09-15T02:04:52.166Z,101015.42
2018-09-15T02:05:30.184Z,101018.84
2018-09-15T02:06:08.100Z,101022.94
2018-09-15T02:06:46.032Z,101014.26
2018-09-15T02:07:23.857Z,101015.77
2018-09-15T02:08:03.660Z,101015.92
2018-09-15T02:08:41.779Z,101011.42
2018-09-15T02:09:19.713Z,101016.06
2018-09-15T02:09:57.939Z,101014.80
2018-09-15T02:10:35.955Z,101016.45
2018-09-15T02:11:13.863Z,101010.33
2018-09-15T02:11:51.982Z,101009.34
2018-09-15T02:12:29.887Z,101011.05
2018-09-15T02:13:07.848Z,101012.25
2018-09-15T02:13:45.787Z,101009.36
2018-09-15T02:14:23.731Z,101007.09
2018-09-15T02:16:05.738Z,101014.56
2018-09-15T02:16:43.649Z,101009.66
2018-09-15T02:17:21.560Z,101008.51
2018-09-15T02:17:59.458Z,101007.69
2018-09-15T02:18:37.438Z,101010.90
2018-09-15T02:19:15.427Z,101011.45
2018-09-15T02:19:53.222Z,101007.34
2018-09-15T02:20:31.380Z,101012.76
2018-09-15T02:21:09.266Z,101008.19
2018-09-15T02:21:47.206Z,101008.48
2018-09-15T02:22:25.407Z,101004.49
2018-09-15T02:23:03.443Z,101004.63
2018-09-15T02:23:41.540Z,101009.04
2018-09-15T02:24:20.333Z,101008.03
2018-09-15T02:24:58.266Z,101006.98
2018-09-15T02:25:36.577Z,101010.35
2018-09-15T02:26:14.547Z,101012.55
2018-09-15T02:26:52.477Z,101010.44
2018-09-15T02:27:30.531Z,101006.67
2018-09-15T02:28:08.467Z,101012.30
2018-09-15T02:28:46.664Z,101011.16
2018-09-15T02:29:24.540Z,101009.48
2018-09-15T02:30:03.698Z,101009.13
2018-09-15T02:30:41.586Z,101007.39
2018-09-15T02:31:19.544Z,101003.83
2018-09-15T02:31:57.363Z,101003.63
2018-09-15T02:32:35.262Z,101005.63
2018-09-15T02:33:13.062Z,101000.50
2018-09-15T02:33:51.016Z,100994.30
2018-09-15T02:34:28.986Z,100998.61
2018-09-15T02:35:12.943Z,101003.21
2018-09-15T02:35:50.802Z,101001.86
2018-09-15T02:36:28.893Z,101000.45
2018-09-15T02:37:06.857Z,100999.06
2018-09-15T02:37:44.847Z,100999.81
2018-09-15T02:38:22.789Z,100993.70
2018-09-15T02:39:00.696Z,100998.20
2018-09-15T02:39:38.531Z,100997.77
2018-09-15T02:40:16.639Z,100997.61
2018-09-15T02:40:54.662Z,100995.41
2018-09-15T02:41:32.514Z,100992.14
2018-09-15T02:42:11.614Z,100990.53
2018-09-15T02:42:49.449Z,100993.59
2018-09-15T02:43:27.393Z,100991.48
2018-09-15T02:44:05.289Z,100989.13
2018-09-15T02:44:43.338Z,100991.69
2018-09-15T02:45:21.360Z,100990.09
2018-09-15T02:45:59.629Z,100992.86
2018-09-15T02:46:37.543Z,100993.45
2018-09-15T02:47:15.459Z,100995.11
2018-09-15T02:47:53.414Z,100991.34
2018-09-15T02:48:31.351Z,100989.78
2018-09-15T02:49:09.367Z,100993.30
2018-09-15T02:49:47.329Z,100992.24
2018-09-15T02:50:25.461Z,100993.64
2018-09-15T02:51:03.438Z,100987.13
2018-09-15T02:51:41.430Z,100986.13
2018-09-15T02:52:19.364Z,100988.98
2018-09-15T02:52:57.231Z,100983.38
2018-09-15T02:53:35.081Z,100990.33
2018-09-15T02:54:13.088Z,100989.73
2018-09-15T02:54:51.376Z,100987.38
2018-09-15T02:55:29.937Z,100981.97
2018-09-15T02:56:07.897Z,100983.38
2018-09-15T02:56:45.945Z,100980.21
2018-09-15T02:57:24.687Z,100989.23
2018-09-15T02:58:02.793Z,100978.15
2018-09-15T02:58:40.749Z,100981.45
2018-09-15T02:59:18.910Z,100980.10
2018-09-15T02:59:56.985Z,100978.15
2018-09-15T03:00:35.575Z,100972.73
2018-09-15T03:01:13.495Z,100976.70
2018-09-15T03:01:51.632Z,100967.38
2018-09-15T03:02:29.753Z,100969.66
2018-09-15T03:03:07.971Z,100967.20
2018-09-15T03:03:47.735Z,100965.45
2018-09-15T03:04:27.559Z,100969.22
2018-09-15T03:05:05.981Z,100970.56
2018-09-15T03:05:44.283Z,100971.88
2018-09-15T03:06:22.725Z,100969.72
2018-09-15T03:07:01.185Z,100975.38
2018-09-15T03:07:40.231Z,100974.03
2018-09-15T03:08:19.207Z,100973.88
2018-09-15T03:08:57.762Z,100973.77
2018-09-15T03:09:36.320Z,100972.89
2018-09-15T03:10:14.677Z,100973.00
2018-09-15T03:10:53.253Z,100975.80
2018-09-15T03:11:31.535Z,100977.75
2018-09-15T03:12:10.198Z,100979.16
2018-09-15T03:12:49.924Z,100979.41
2018-09-15T03:13:28.235Z,100983.45
2018-09-15T03:14:06.605Z,100981.25
2018-09-15T03:14:44.895Z,100983.13
2018-09-15T03:15:23.157Z,100977.86
2018-09-15T03:16:01.234Z,100983.92
2018-09-15T03:16:39.688Z,100984.24
2018-09-15T03:17:18.529Z,100982.02
2018-09-15T03:17:56.692Z,100986.64
2018-09-15T03:18:34.742Z,100983.81
2018-09-15T03:19:12.897Z,100984.92
2018-09-15T03:19:52.133Z,100985.20
2018-09-15T03:20:30.380Z,100988.02
2018-09-15T03:21:08.989Z,100981.60
2018-09-15T03:21:47.113Z,100984.31
2018-09-15T03:22:24.992Z,100986.47
2018-09-15T03:23:02.888Z,100983.75
2018-09-15T03:23:40.922Z,100982.72
2018-09-15T03:24:18.759Z,100984.28
2018-09-15T03:24:56.692Z,100985.08
2018-09-15T03:25:34.549Z,100977.20
2018-09-15T03:26:12.486Z,100975.62
2018-09-15T03:26:50.455Z,100982.22
2018-09-15T03:27:28.304Z,100975.28
2018-09-15T03:28:06.171Z,100978.20
2018-09-15T03:28:44.386Z,100977.08
2018-09-15T03:29:22.348Z,100977.56
2018-09-15T03:30:00.347Z,100979.88
2018-09-15T03:30:38.119Z,100973.97
2018-09-15T03:31:15.939Z,100977.97
2018-09-15T03:31:53.889Z,100973.00
2018-09-15T03:32:31.930Z,100977.27
2018-09-15T03:33:09.812Z,100969.02
2018-09-15T03:33:48.082Z,100969.53
2018-09-15T03:34:25.899Z,100970.30
2018-09-15T03:35:03.863Z,100970.48
2018-09-15T03:35:41.764Z,100972.72
2018-09-15T03:36:19.756Z,100965.44
2018-09-15T03:36:57.741Z,100969.66
2018-09-15T03:37:35.636Z,100973.24
2018-09-15T03:38:13.712Z,100963.63
2018-09-15T03:38:51.900Z,100963.22
2018-09-15T03:39:29.835Z,100962.63
2018-09-15T03:40:07.848Z,100962.83
2018-09-15T03:40:45.751Z,100966.83
2018-09-15T03:41:23.766Z,100963.98
2018-09-15T03:42:01.919Z,100963.70
2018-09-15T03:42:39.986Z,100965.90
2018-09-15T03:43:19.759Z,100960.02
2018-09-15T03:43:57.693Z,100960.64
2018-09-15T03:44:35.588Z,100961.67
2018-09-15T03:45:13.598Z,100958.14
2018-09-15T03:45:52.362Z,100956.88
2018-09-15T03:46:31.375Z,100952.91
2018-09-15T03:47:09.647Z,100952.59
2018-09-15T03:47:47.779Z,100949.55
2018-09-15T03:48:25.775Z,100948.15
2018-09-15T03:49:03.705Z,100954.61
2018-09-15T03:49:41.491Z,100953.50
2018-09-15T03:50:19.624Z,100951.78
2018-09-15T03:50:57.523Z,100958.41
2018-09-15T03:51:35.431Z,100955.20
2018-09-15T03:52:13.295Z,100950.86
2018-09-15T03:52:51.136Z,100949.00
2018-09-15T03:53:29.116Z,100952.78
2018-09-15T03:54:07.113Z,100952.73
2018-09-15T03:54:44.998Z,100953.23
2018-09-15T03:55:23.016Z,100954.77
2018-09-15T03:56:01.244Z,100951.63
2018-09-15T03:56:39.216Z,100945.07
2018-09-15T03:57:17.185Z,100944.40
2018-09-15T03:57:55.156Z,100948.54
2018-09-15T03:58:33.069Z,100944.68
2018-09-15T03:59:11.842Z,100945.41
2018-09-15T03:59:49.824Z,100940.64
2018-09-15T04:00:27.811Z,100937.53
2018-09-15T04:01:05.848Z,100946.06
2018-09-15T04:01:44.435Z,100942.97
2018-09-15T04:02:22.353Z,100941.25
2018-09-15T04:03:00.393Z,100944.11
2018-09-15T04:03:38.407Z,100941.23
2018-09-15T04:04:16.854Z,100941.06
2018-09-15T04:04:54.959Z,100938.97
2018-09-15T04:05:32.874Z,100942.05
2018-09-15T04:06:10.897Z,100939.18
2018-09-15T04:06:49.018Z,100932.17
2018-09-15T04:07:26.845Z,100940.33
2018-09-15T04:08:04.762Z,100942.58
2018-09-15T04:08:42.769Z,100936.70
2018-09-15T04:09:20.694Z,100936.73
2018-09-15T04:09:58.569Z,100939.52
2018-09-15T04:10:36.478Z,100936.86
2018-09-15T04:11:17.250Z,100937.70
2018-09-15T04:11:55.272Z,100938.29
2018-09-15T04:12:33.339Z,100938.33
2018-09-15T04:13:11.403Z,100934.31
2018-09-15T04:13:49.513Z,100934.09
2018-09-15T04:14:27.566Z,100935.77
2018-09-15T04:15:05.612Z,100925.55
2018-09-15T04:15:43.715Z,100922.63
2018-09-15T04:16:21.572Z,100925.91
2018-09-15T04:16:59.615Z,100921.09
2018-09-15T04:17:37.469Z,100913.38
2018-09-15T04:18:19.904Z,100922.59
2018-09-15T04:18:58.133Z,100922.66
2018-09-15T04:19:36.122Z,100919.73
2018-09-15T04:20:15.038Z,100920.56
2018-09-15T04:20:52.980Z,100917.89
2018-09-15T04:21:30.874Z,100915.00
2018-09-15T04:22:08.736Z,100923.36
2018-09-15T04:22:46.885Z,100923.94
2018-09-15T04:23:24.868Z,100931.02
2018-09-15T04:24:03.740Z,100926.48
2018-09-15T04:24:41.790Z,100927.88
2018-09-15T04:25:19.813Z,100927.39
2018-09-15T04:25:57.765Z,100930.72
2018-09-15T04:26:36.443Z,100929.70
2018-09-15T04:27:14.384Z,100933.29
2018-09-15T04:27:52.339Z,100927.94
2018-09-15T04:28:30.220Z,100931.26
2018-09-15T04:29:08.173Z,100941.27
2018-09-15T04:29:46.347Z,100950.27
2018-09-15T04:30:24.403Z,100954.70
2018-09-15T04:31:02.205Z,100942.14
2018-09-15T04:31:40.188Z,100947.05
2018-09-15T04:32:19.242Z,100934.71
2018-09-15T04:32:57.115Z,100934.70
2018-09-15T04:33:35.026Z,100938.80
2018-09-15T04:34:13.038Z,100932.36
2018-09-15T04:34:51.002Z,100934.52
2018-09-15T04:35:29.968Z,100934.25
2018-09-15T04:36:07.927Z,100935.64
2018-09-15T04:36:45.906Z,100935.13
2018-09-15T04:37:23.885Z,100933.48
2018-09-15T04:38:01.858Z,100936.45
2018-09-15T04:38:39.901Z,100934.59
2018-09-15T04:39:18.018Z,100930.03
2018-09-15T04:39:56.832Z,100926.81
2018-09-15T04:40:34.746Z,100923.03
2018-09-15T04:41:12.831Z,100919.56
2018-09-15T04:41:50.732Z,100917.95
2018-09-15T04:42:28.740Z,100912.58
2018-09-15T04:43:06.700Z,100908.52
2018-09-15T04:43:44.613Z,100909.61
2018-09-15T04:45:05.705Z,100904.24
2018-09-15T04:45:43.579Z,100890.25
2018-09-15T04:46:21.851Z,100890.53
2018-09-15T04:46:59.923Z,100891.06
2018-09-15T04:47:37.776Z,100887.25
2018-09-15T04:48:16.606Z,100890.21
2018-09-15T04:48:54.435Z,100883.49
2018-09-15T04:49:32.255Z,100875.42
2018-09-15T04:50:10.114Z,100882.96
2018-09-15T04:50:48.091Z,100881.08
2018-09-15T04:51:26.318Z,100885.13
2018-09-15T04:52:04.135Z,100879.75
2018-09-15T04:52:42.070Z,100875.72
2018-09-15T04:53:20.837Z,100882.44
2018-09-15T04:53:58.819Z,100879.98
2018-09-15T04:54:36.681Z,100881.33
2018-09-15T04:55:14.652Z,100877.57
2018-09-15T04:55:52.613Z,100870.31
2018-09-15T04:56:30.858Z,100871.92
2018-09-15T04:57:08.814Z,100868.16
2018-09-15T04:57:46.803Z,100866.55
2018-09-15T04:58:24.792Z,100864.13
2018-09-15T04:59:02.608Z,100864.66
2018-09-15T04:59:40.575Z,100866.58
2018-09-15T05:00:18.570Z,100862.01
2018-09-15T05:00:56.610Z,100865.50
2018-09-15T05:01:35.378Z,100862.81
2018-09-15T05:02:13.374Z,100862.54
2018-09-15T05:02:51.420Z,100859.31
2018-09-15T05:03:29.577Z,100860.39
2018-09-15T05:04:07.601Z,100857.16
2018-09-15T05:04:45.495Z,100856.09
2018-09-15T05:05:23.327Z,100852.06
2018-09-15T05:06:01.261Z,100850.72
2018-09-15T05:06:39.261Z,100847.75
2018-09-15T05:07:17.321Z,100847.48
2018-09-15T05:07:56.081Z,100850.70
2018-09-15T05:08:34.254Z,100844.25
2018-09-15T05:09:14.554Z,100840.75
2018-09-15T05:09:52.712Z,100843.17
2018-09-15T05:10:30.709Z,100842.63
2018-09-15T05:11:08.594Z,100845.05
2018-09-15T05:11:46.565Z,100853.39
2018-09-15T05:12:24.670Z,100846.40
2018-09-15T05:13:02.747Z,100849.63
2018-09-15T05:13:40.622Z,100840.21
2018-09-15T05:14:18.652Z,100851.77
2018-09-15T05:14:56.515Z,100848.81
2018-09-15T05:15:34.477Z,100852.58
2018-09-15T05:16:12.351Z,100852.03
2018-09-15T05:16:50.253Z,100852.31
2018-09-15T05:17:28.136Z,100849.63
2018-09-15T05:18:06.116Z,100856.08
2018-09-15T05:18:43.902Z,100847.20
2018-09-15T05:19:21.834Z,100849.63
2018-09-15T05:19:59.708Z,100852.30
2018-09-15T05:20:37.568Z,100848.27
2018-09-15T05:21:15.481Z,100853.38
2018-09-15T05:21:53.482Z,100848.81
2018-09-15T05:22:31.303Z,100852.84
2018-09-15T05:23:09.804Z,100854.19
2018-09-15T05:23:47.689Z,100852.03
2018-09-15T05:24:26.329Z,100850.69
2018-09-15T05:25:04.267Z,100852.56
2018-09-15T05:25:42.381Z,100854.45
2018-09-15T05:26:20.346Z,100848.27
2018-09-15T05:26:58.313Z,100844.77
2018-09-15T05:27:36.466Z,100847.98
2018-09-15T05:28:14.270Z,100844.49
2018-09-15T05:28:52.142Z,100846.64
2018-09-15T05:29:30.172Z,100847.20
2018-09-15T05:30:08.450Z,100846.40
2018-09-15T05:30:46.253Z,100844.27
2018-09-15T05:31:24.227Z,100840.50
2018-09-15T05:32:02.928Z,100833.51
2018-09-15T05:32:40.772Z,100834.58
2018-09-15T05:33:18.704Z,100832.42
2018-09-15T05:33:56.716Z,100836.45
2018-09-15T05:34:34.606Z,100830.00
2018-09-15T05:35:12.515Z,100831.07
2018-09-15T05:35:50.419Z,100832.41
2018-09-15T05:36:28.967Z,100832.14
2018-09-15T05:37:06.910Z,100828.64
2018-09-15T05:37:44.728Z,100827.01
2018-09-15T05:38:22.820Z,100825.96
2018-09-15T05:39:00.724Z,100827.84
2018-09-15T05:39:38.628Z,100823.53
2018-09-15T05:40:17.464Z,100826.20
2018-09-15T05:40:56.435Z,100827.55
2018-09-15T05:41:34.269Z,100822.95
2018-09-15T05:42:12.258Z,100827.52
2018-09-15T05:42:50.205Z,100821.84
2018-09-15T05:43:28.510Z,100823.45
2018-09-15T05:44:06.470Z,100821.59
2018-09-15T05:44:44.349Z,100826.68
2018-09-15T05:45:22.346Z,100817.27
2018-09-15T05:46:00.177Z,100825.59
2018-09-15T05:46:38.015Z,100825.34
2018-09-15T05:47:15.906Z,100819.40
2018-09-15T05:47:56.088Z,100816.42
2018-09-15T05:48:34.084Z,100816.95
2018-09-15T05:49:12.405Z,100816.13
2018-09-15T05:49:50.315Z,100815.57
2018-09-15T05:50:28.317Z,100812.89
2018-09-15T05:51:06.159Z,100814.24
2018-09-15T05:51:43.958Z,100814.51
2018-09-15T05:52:21.958Z,100817.74
2018-09-15T05:52:59.989Z,100815.33
2018-09-15T05:53:38.298Z,100815.31
2018-09-15T05:54:16.406Z,100807.22
2018-09-15T05:54:54.558Z,100808.27
2018-09-15T05:55:32.538Z,100813.91
2018-09-15T05:56:10.435Z,100808.52
2018-09-15T05:56:48.382Z,100806.35
2018-09-15T05:57:26.340Z,100806.35
2018-09-15T05:58:06.155Z,100805.00
2018-09-15T05:58:44.211Z,100797.45
2018-09-15T05:59:22.268Z,100806.05
2018-09-15T06:00:00.104Z,100801.19
2018-09-15T06:00:38.154Z,100799.80
2018-09-15T06:01:16.249Z,100799.80
2018-09-15T06:01:54.203Z,100796.06
2018-09-15T06:02:32.083Z,100798.22
2018-09-15T06:03:09.979Z,100794.72
2018-09-15T06:03:48.009Z,100799.28
2018-09-15T06:04:26.032Z,100792.81
2018-09-15T06:05:03.847Z,100794.68
2018-09-15T06:05:41.812Z,100787.91
2018-09-15T06:06:20.062Z,100798.12
2018-09-15T06:06:58.126Z,100786.81
2018-09-15T06:07:36.204Z,100790.33
2018-09-15T06:08:14.236Z,100787.34
2018-09-15T06:08:52.324Z,100782.51
2018-09-15T06:09:30.129Z,100780.88
2018-09-15T06:10:08.250Z,100778.95
2018-09-15T06:10:46.499Z,100786.17
2018-09-15T06:11:24.418Z,100782.92
2018-09-15T06:12:02.556Z,100786.37
2018-09-15T06:12:40.548Z,100781.22
2018-09-15T06:13:18.499Z,100782.47
2018-09-15T06:13:56.538Z,100780.53
2018-09-15T06:14:35.416Z,100774.38
2018-09-15T06:15:13.472Z,100778.69
2018-09-15T06:15:51.621Z,100773.02
2018-09-15T06:16:29.484Z,100776.17
2018-09-15T06:17:07.265Z,100775.60
2018-09-15T06:17:45.142Z,100770.75
2018-09-15T06:18:23.065Z,100772.28
2018-09-15T06:19:00.877Z,100772.84
2018-09-15T06:19:39.695Z,100775.83
2018-09-15T06:20:17.472Z,100775.55
2018-09-15T06:20:55.327Z,100764.73
2018-09-15T06:21:33.547Z,100762.30
2018-09-15T06:22:11.349Z,100755.06
2018-09-15T06:22:49.224Z,100755.27
2018-09-15T06:23:27.050Z,100757.12
2018-09-15T06:24:05.211Z,100762.21
2018-09-15T06:24:43.089Z,100748.41
2018-09-15T06:25:20.933Z,100751.10
2018-09-15T06:25:58.931Z,100744.84
2018-09-15T06:26:37.613Z,100749.41
2018-09-15T06:27:15.590Z,100744.13
2018-09-15T06:27:53.810Z,100744.28
2018-09-15T06:28:31.866Z,100735.28
2018-09-15T06:29:09.847Z,100735.80
2018-09-15T06:29:47.836Z,100733.79
2018-09-15T06:30:25.798Z,100725.40
2018-09-15T06:31:03.864Z,100729.69
2018-09-15T06:31:42.006Z,100724.25
2018-09-15T06:32:19.872Z,100727.77
2018-09-15T06:32:57.696Z,100722.62
2018-09-15T06:33:35.768Z,100723.72
2018-09-15T06:34:13.633Z,100728.86
2018-09-15T06:34:52.623Z,100723.20
2018-09-15T06:35:30.848Z,100723.75
2018-09-15T06:36:08.601Z,100719.72
2018-09-15T06:36:46.468Z,100718.41
2018-09-15T06:37:24.455Z,100715.95
2018-09-15T06:38:02.287Z,100716.50
2018-09-15T06:38:40.185Z,100716.84
2018-09-15T06:39:18.147Z,100716.33
2018-09-15T06:39:56.038Z,100707.29
2018-09-15T06:40:34.141Z,100714.80
2018-09-15T06:41:12.158Z,100704.84
2018-09-15T06:41:50.046Z,100711.64
2018-09-15T06:42:28.026Z,100710.55
2018-09-15T06:43:06.128Z,100703.58
2018-09-15T06:43:44.031Z,100705.27
2018-09-15T06:44:21.887Z,100707.41
2018-09-15T06:45:00.179Z,100704.20
2018-09-15T06:45:38.198Z,100706.91
2018-09-15T06:46:16.866Z,100702.34
2018-09-15T06:46:54.682Z,100694.58
2018-09-15T06:47:32.751Z,100696.66
2018-09-15T06:48:10.829Z,100695.05
2018-09-15T06:48:48.822Z,100693.73
2018-09-15T06:49:26.731Z,100686.52
2018-09-15T06:50:04.787Z,100690.27
2018-09-15T06:50:42.672Z,100689.72
2018-09-15T06:51:20.626Z,100676.60
2018-09-15T06:51:58.590Z,100673.21
2018-09-15T06:52:36.426Z,100680.69
2018-09-15T06:53:14.463Z,100679.30
2018-09-15T06:53:52.539Z,100676.60
2018-09-15T06:54:30.589Z,100679.59
2018-09-15T06:55:08.552Z,100679.55
2018-09-15T06:55:46.575Z,100673.06
2018-09-15T06:56:24.596Z,100674.67
2018-09-15T06:57:02.522Z,100669.27
2018-09-15T06:57:40.541Z,100665.30
2018-09-15T06:58:18.379Z,100674.74
2018-09-15T06:58:56.794Z,100666.97
2018-09-15T06:59:34.760Z,100674.27
2018-09-15T07:00:17.088Z,100662.48
2018-09-15T07:00:55.125Z,100668.40
2018-09-15T07:02:33.419Z,100658.77
2018-09-15T07:03:11.448Z,100661.98
2018-09-15T07:03:49.353Z,100655.81
2018-09-15T07:04:27.315Z,100656.88
2018-09-15T07:05:05.273Z,100659.06
2018-09-15T07:05:43.206Z,100649.11
2018-09-15T07:06:22.044Z,100652.35
2018-09-15T07:06:59.902Z,100648.02
2018-09-15T07:07:37.963Z,100641.38
2018-09-15T07:11:17.688Z,100636.20
2018-09-15T07:11:55.547Z,100635.62
2018-09-15T07:12:33.531Z,100634.53
2018-09-15T07:13:11.700Z,100642.36
2018-09-15T07:13:49.549Z,100633.18
2018-09-15T07:14:27.351Z,100630.23
2018-09-15T07:15:05.164Z,100641.27
2018-09-15T07:15:43.110Z,100630.45
2018-09-15T07:16:21.105Z,100636.64
2018-09-15T07:16:59.759Z,100633.69
2018-09-15T07:17:37.741Z,100632.34
2018-09-15T07:18:15.706Z,100629.34
2018-09-15T07:18:53.681Z,100628.51
2018-09-15T07:19:31.923Z,100626.10
2018-09-15T07:20:10.339Z,100628.18
2018-09-15T07:20:49.836Z,100625.45
2018-09-15T07:21:27.678Z,100625.41
2018-09-15T07:22:05.527Z,100625.15